This is the latest recevied weather packets stored in our database for station/object KA7RLM. If no packets are shown the sender has not sent any weather packets the latest 10 day(s).
| Time | Temp. | Humidity | Pressure | Rain* | Wind** | Luminosity | Snow |
|---|---|---|---|---|---|---|---|
| 1777698631 | 16.67° C | 63% | 1016.1 hPa | 0 mm | - | - | - |
| 1777693220 | 18.33° C | 54% | 1015.2 hPa | 0 mm | - | - | - |
| 1777689616 | 21.11° C | 48% | 1014.4 hPa | 0 mm | - | - | - |
| 1777685418 | 23.89° C | 45% | 1014.2 hPa | 0 mm | - | - | - |
| 1777683030 | 24.44° C | 44% | 1014.3 hPa | 0 mm | - | - | - |
| 1777680049 | 23.89° C | 42% | 1014.4 hPa | 0 mm | - | - | - |
| 1777679452 | 25° C | 42% | 1014.4 hPa | 0 mm | - | - | - |
| 1777677625 | 25° C | 42% | 1014.7 hPa | 0 mm | - | - | - |
| 1777677023 | 24.44° C | 41% | 1014.9 hPa | 0 mm | - | - | - |
| 1777672832 | 23.33° C | 44% | 1015.6 hPa | 0 mm | - | - | - |
| 1777671661 | 22.78° C | 45% | 1015.7 hPa | 0 mm | - | - | - |
| 1777665020 | 20.56° C | 54% | 1016.2 hPa | 0 mm | - | - | - |
| 1777662616 | 20° C | 58% | 1016.4 hPa | 0 mm | - | - | - |
| 1777660821 | 18.89° C | 60% | 1016.5 hPa | 0 mm | - | - | - |
| 1777658424 | 18.89° C | 60% | 1016.7 hPa | 0 mm | - | - | - |
| 1777655422 | 17.22° C | 69% | 1017.1 hPa | 0 mm | - | - | - |
| 1777652420 | 15° C | 78% | 1017.6 hPa | 0 mm | - | - | - |
| 1777651226 | 15° C | 77% | 1017.7 hPa | 0 mm | - | - | - |
| 1777644028 | 10° C | 95% | 1016.9 hPa | 0 mm | - | - | - |
| 1777643421 | 10° C | 96% | 1016.8 hPa | 0 mm | - | - | - |
| 1777641021 | 10° C | 95% | 1016.7 hPa | 0 mm | - | - | - |
| 1777630818 | 11.67° C | 88% | 1016.4 hPa | 0 mm | - | - | - |
| 1777630221 | 11.67° C | 87% | 1016.2 hPa | 0 mm | - | - | - |
| 1777629016 | 11.67° C | 87% | 1016 hPa | 0 mm | - | - | - |
| 1777624232 | 12.78° C | 82% | 1016.1 hPa | 0 mm | - | - | - |
* Rain latest hour (hover to see other rain measurements)
** Current wind speed in m/s (hover to see current wind gust speed)